Lake Worth, FL

7:36 AM EDT on July 26, 2017 (GMT -0400)
Southeast Lake Osborne | | Change Station

Elev 16 ft 26.58 °N, 80.08 °W | Updated 15 seconds ago

Partly Cloudy
Partly Cloudy
82.2 °F
Feels Like 90 °F
N
2.2
Wind Variable Wind from SE

Today
High -- | Low -- °F
--% Chance of Precip.
Yesterday
High -- | Low -- °F
Precip. -- in
Pressure 30.09 in
Visibility 10.0 miles
Clouds Few 2000 ft
Scattered Clouds 25000 ft
Heat Index 90 °F
Dew Point 76 °F
Humidity 82%
Rainfall 0.00 in
Snow Depth Not available.
6:42 AM 8:11 PM
Waxing Crescent, 12% visible
METAR KPBI 261053Z 00000KT 10SM FEW020 SCT250 28/24 A3009 RMK AO2 SLP187 T02830239 $
Pressure 30.09 in
Visibility 10.0 miles
Clouds Few 2000 ft
Scattered Clouds 25000 ft
Heat Index 90 °F
Dew Point 76 °F
Humidity 82%
Rainfall 0.00 in
Snow Depth Not available.
6:42 AM 8:11 PM
Waxing Crescent, 12% visible
METAR KPBI 261053Z 00000KT 10SM FEW020 SCT250 28/24 A3009 RMK AO2 SLP187 T02830239 $

Get Severe Weather Alerts

Thanks for signing up!

Be on the lookout for a verification email in your inbox.

You'll start receiving the daily forecast at 6 AM.

×

10-Day Weather Forecast

Almanac

Astronomy

Jul. 26, 2017 Rise Set
Actual Time
Civil Twilight
Nautical Twilight
Astronomical Twilight
Moon
Length of Visible Light
Length of Day
Tomorrow will be .
, % of the Moon is Illuminated

Today's Extremes

State Highs State Lows

Community

WunderPhotos

Category 6

Welcome to Category 6. This is the collective home for Weather Underground's featured writeups by Dr. Jeff Masters (right), Bob Henson (left), Chris Burt, and other regular contributors.

Nearby

Air Quality

  Air Quality AQ Index Pollutant
Not available.

Snow Depth

Station Depth Elevation

Earthquake Activity

City Distance Mag. Time & Date
Minimum magnitude displayed is 2.5.

Coastal Water Temperatures

Place Temperature

Stations

Nearby Weather Stations

Station Location Temp. Windchill Dew Point Humidity Wind Precip. Elev Updated Type
                   

Watches & Warnings

There are currently no watches in effect.